KMDH/MDH METAR and TAF weather

Enter ICAO airport designator
Station Type Date Time Source
KMDH METAR 2019/08/24 06:52 UTC NOAA

KMDH 240652Z AUTO 05004KT 9SM CLR 19/18 A3011 RMK AO2 SLP192 T01890178


Station Type Date Time Source
KMDH Decoded METAR 2019/08/24 06:52 UTC NOAA

Station name not available
Aug 24, 2019 - 02:52 AM EDT / 2019.08.24 0652 UTC
Wind: from the NE (050 degrees) at 5 MPH (4 KT):0
Visibility: 9 mile(s):0
Sky conditions: clear
Temperature: 66.0 F (18.9 C)
Dew Point: 64.0 F (17.8 C)
Relative Humidity: 93%
Pressure (altimeter): 30.11 in. Hg (1019 hPa)
ob: KMDH 240652Z AUTO 05004KT 9SM CLR 19/18 A3011 RMK AO2 SLP192 T01890178
cycle: 7

Station Type Date Time Source
KMDH TAF UTC NOAA

Error!

Example: see airport list